Beaver, Utah
Current Conditions -  °F | °C
As of 11:52 PM on Wednesday 22 Oct 2014 (Local Time) from KMLF Reporting Station
Clear Clear  
Wind Chill: 39°   Ceiling: Unl
Heat Index: 43°   Visibility: 10mi
Dew Point: 28°   Wind: 6mph
Humidity: 56%   Direction: 210°SSW
Pressure: 30.18"   Gusts: NA
Location:  38.28°N, 112.64°W
Report Text: KMLF 230552Z AUTO 21005KT 10SM CLR 06/M02 A3018 RMK AO2 SLP196 T00611022 10194 20061 51003 TSNO
Loading
Personal Weather Stations






























Interactive Weather Map
Tropical Storm Tracking
New forecast layout! Learn more

10-Day Weather Forecast

Advertisements
Track Severe Weather on mobile